createdAt,value
2018-12-23T00:01:08.510Z,91.10
2018-12-23T00:03:36.705Z,91.00
2018-12-23T00:06:04.919Z,90.20
2018-12-23T00:08:33.114Z,91.40
2018-12-23T00:11:01.316Z,91.70
2018-12-23T00:13:29.518Z,90.60
2018-12-23T00:15:57.719Z,89.90
2018-12-23T00:18:25.980Z,89.70
2018-12-23T00:20:54.190Z,91.30
2018-12-23T00:23:22.411Z,89.10
2018-12-23T00:25:50.591Z,89.20
2018-12-23T00:28:18.822Z,88.90
2018-12-23T00:30:47.062Z,88.80
2018-12-23T00:33:15.222Z,88.80
2018-12-23T00:35:43.455Z,89.00
2018-12-23T00:38:11.686Z,88.70
2018-12-23T00:40:39.847Z,90.00
2018-12-23T00:43:08.081Z,90.30
2018-12-23T00:45:36.262Z,90.30
2018-12-23T00:48:04.501Z,90.40
2018-12-23T00:50:32.719Z,90.20
2018-12-23T00:53:00.891Z,91.50
2018-12-23T00:55:29.105Z,91.90
2018-12-23T00:57:57.252Z,91.50
2018-12-23T01:00:25.518Z,90.80
2018-12-23T01:02:53.746Z,91.60
2018-12-23T01:05:28.738Z,90.70
2018-12-23T01:07:52.182Z,91.00
2018-12-23T01:10:20.907Z,91.70
2018-12-23T01:12:49.507Z,90.60
2018-12-23T01:15:18.151Z,89.70
2018-12-23T01:17:46.392Z,90.50
2018-12-23T01:20:14.562Z,90.70
2018-12-23T01:22:42.752Z,92.50
2018-12-23T01:25:11.007Z,92.40
2018-12-23T01:27:39.299Z,92.30
2018-12-23T01:30:07.548Z,92.90
2018-12-23T01:32:35.678Z,92.70
2018-12-23T01:35:03.870Z,94.90
2018-12-23T01:37:32.114Z,95.10
2018-12-23T01:40:00.305Z,96.90
2018-12-23T01:42:28.438Z,97.00
2018-12-23T01:44:56.678Z,96.90
2018-12-23T01:47:25.062Z,96.80
2018-12-23T01:49:53.174Z,96.30
2018-12-23T01:52:21.350Z,97.10
2018-12-23T01:54:49.560Z,97.40
2018-12-23T01:57:17.861Z,97.00
2018-12-23T01:59:46.064Z,95.50
2018-12-23T02:02:14.287Z,95.10
2018-12-23T02:04:42.542Z,94.80
2018-12-23T02:07:10.769Z,94.90
2018-12-23T02:09:38.987Z,95.00
2018-12-23T02:12:07.366Z,93.40
2018-12-23T02:14:35.555Z,93.20
2018-12-23T02:17:03.784Z,92.50
2018-12-23T02:19:32.011Z,93.00
2018-12-23T02:22:00.202Z,93.00
2018-12-23T02:24:28.326Z,93.80
2018-12-23T02:26:56.568Z,94.80
2018-12-23T02:29:24.754Z,94.30
2018-12-23T02:31:53.001Z,96.10
2018-12-23T02:34:21.393Z,96.40
2018-12-23T02:36:49.582Z,96.60
2018-12-23T02:39:17.807Z,97.50
2018-12-23T02:41:46.053Z,94.40
2018-12-23T02:44:14.322Z,94.90
2018-12-23T02:46:42.482Z,94.90
2018-12-23T02:49:10.709Z,95.40
2018-12-23T02:51:38.982Z,95.60
2018-12-23T02:54:07.163Z,94.50
2018-12-23T02:56:35.388Z,94.60
2018-12-23T02:59:03.640Z,93.90
2018-12-23T03:01:31.859Z,94.80
2018-12-23T03:04:00.040Z,94.50
2018-12-23T03:06:28.256Z,94.70
2018-12-23T03:08:56.583Z,96.10
2018-12-23T03:11:24.882Z,95.50
2018-12-23T03:13:53.116Z,95.80
2018-12-23T03:16:21.304Z,95.50
2018-12-23T03:18:49.574Z,94.80
2018-12-23T03:21:17.879Z,95.10
2018-12-23T03:23:46.167Z,95.00
2018-12-23T03:26:14.354Z,95.10
2018-12-23T03:28:42.535Z,94.30
2018-12-23T03:31:10.803Z,94.00
2018-12-23T03:33:39.104Z,94.10
2018-12-23T03:36:14.913Z,94.30
2018-12-23T03:38:37.454Z,94.70
2018-12-23T03:41:05.650Z,95.00
2018-12-23T03:43:33.875Z,95.30
2018-12-23T03:46:02.148Z,94.80
2018-12-23T03:48:30.392Z,95.40
2018-12-23T03:50:58.626Z,96.10
2018-12-23T03:53:26.793Z,96.40
2018-12-23T03:55:55.005Z,96.90
2018-12-23T03:58:23.260Z,97.00
2018-12-23T04:00:51.512Z,96.90
2018-12-23T04:03:19.811Z,96.60
2018-12-23T04:05:48.040Z,96.40
2018-12-23T04:08:16.269Z,96.60
2018-12-23T04:10:44.536Z,96.30
2018-12-23T04:13:12.651Z,96.90
2018-12-23T04:15:40.905Z,97.80
2018-12-23T04:18:09.107Z,98.30
2018-12-23T04:20:37.299Z,98.10
2018-12-23T04:23:05.563Z,97.90
2018-12-23T04:25:33.839Z,97.90
2018-12-23T04:28:02.066Z,98.10
2018-12-23T04:30:30.208Z,97.80
2018-12-23T04:32:58.433Z,98.40
2018-12-23T04:35:26.655Z,98.60
2018-12-23T04:37:54.840Z,98.50
2018-12-23T04:40:23.012Z,98.50
2018-12-23T04:42:51.157Z,98.50
2018-12-23T04:45:19.488Z,98.90
2018-12-23T04:47:47.699Z,99.20
2018-12-23T04:50:15.915Z,99.70
2018-12-23T04:52:44.109Z,99.90
2018-12-23T04:55:12.444Z,99.90
2018-12-23T04:57:40.659Z,99.90
2018-12-23T05:00:09.325Z,99.90
2018-12-23T05:02:37.510Z,99.90
2018-12-23T05:05:05.753Z,99.90
2018-12-23T05:07:33.966Z,99.80
2018-12-23T05:10:02.220Z,99.30
2018-12-23T05:12:30.480Z,98.80
2018-12-23T05:14:58.721Z,98.30
2018-12-23T05:17:27.048Z,97.90
2018-12-23T05:19:55.292Z,97.00
2018-12-23T05:22:23.483Z,97.00
2018-12-23T05:24:51.664Z,97.20
2018-12-23T05:27:19.823Z,96.50
2018-12-23T05:29:48.023Z,95.30
2018-12-23T05:32:16.328Z,94.80
2018-12-23T05:34:44.490Z,94.10
2018-12-23T05:37:12.647Z,93.70
2018-12-23T05:39:40.836Z,94.10
2018-12-23T05:42:09.071Z,94.00
2018-12-23T05:44:37.272Z,94.70
2018-12-23T05:47:05.529Z,94.80
2018-12-23T05:49:33.751Z,93.70
2018-12-23T05:52:01.986Z,93.60
2018-12-23T05:54:30.173Z,93.50
2018-12-23T05:56:58.322Z,94.00
2018-12-23T05:59:26.510Z,94.70
2018-12-23T06:01:54.756Z,94.70
2018-12-23T06:04:23.033Z,93.90
2018-12-23T06:06:51.227Z,93.00
2018-12-23T06:09:19.359Z,92.40
2018-12-23T06:11:47.639Z,93.20
2018-12-23T06:14:15.875Z,93.00
2018-12-23T06:16:44.167Z,92.40
2018-12-23T06:19:12.367Z,92.90
2018-12-23T06:21:40.543Z,92.30
2018-12-23T06:24:08.812Z,93.00
2018-12-23T06:26:37.091Z,93.10
2018-12-23T06:29:05.298Z,93.80
2018-12-23T06:31:33.541Z,93.20
2018-12-23T06:34:01.763Z,92.90
2018-12-23T06:36:30.113Z,93.50
2018-12-23T06:38:58.341Z,93.80
2018-12-23T06:41:26.607Z,92.60
2018-12-23T06:43:54.724Z,92.70
2018-12-23T06:46:23.116Z,91.90
2018-12-23T06:48:51.266Z,92.20
2018-12-23T06:51:19.429Z,92.60
2018-12-23T06:53:47.563Z,93.50
2018-12-23T06:56:15.768Z,94.50
2018-12-23T06:58:44.011Z,94.00
2018-12-23T07:01:12.312Z,94.30
2018-12-23T07:03:40.632Z,93.90
2018-12-23T07:06:08.904Z,93.90
2018-12-23T07:08:37.146Z,93.00
2018-12-23T07:11:05.382Z,92.60
2018-12-23T07:13:33.693Z,91.90
2018-12-23T07:16:01.943Z,92.40
2018-12-23T07:18:30.237Z,92.10
2018-12-23T07:20:58.471Z,91.50
2018-12-23T07:23:26.667Z,92.10
2018-12-23T07:25:54.940Z,92.00
2018-12-23T07:28:23.161Z,91.10
2018-12-23T07:30:51.439Z,89.90
2018-12-23T07:33:19.707Z,90.30
2018-12-23T07:35:47.940Z,90.00
2018-12-23T07:38:16.119Z,89.30
2018-12-23T07:40:44.475Z,90.30
2018-12-23T07:43:12.708Z,89.70
2018-12-23T07:45:40.999Z,89.00
2018-12-23T07:48:10.074Z,89.30
2018-12-23T07:50:38.351Z,89.20
2018-12-23T07:53:06.603Z,89.00
2018-12-23T07:55:34.803Z,89.60
2018-12-23T07:58:03.066Z,88.60
2018-12-23T08:00:31.320Z,87.70
2018-12-23T08:02:59.525Z,87.50
2018-12-23T08:05:27.748Z,87.60
2018-12-23T08:07:55.985Z,88.30
2018-12-23T08:10:24.215Z,88.20
2018-12-23T08:12:52.495Z,87.70
2018-12-23T08:15:20.740Z,86.70
2018-12-23T08:17:48.942Z,87.40
2018-12-23T08:20:17.212Z,88.10
2018-12-23T08:22:45.436Z,86.70
2018-12-23T08:25:13.753Z,86.30
2018-12-23T08:27:41.934Z,85.90
2018-12-23T08:30:10.168Z,84.80
2018-12-23T08:32:38.397Z,84.80
2018-12-23T08:35:06.651Z,83.80
2018-12-23T08:37:34.835Z,81.20
2018-12-23T08:40:03.097Z,81.90
2018-12-23T08:42:31.327Z,79.90
2018-12-23T08:44:59.507Z,79.80
2018-12-23T08:47:27.779Z,79.40
2018-12-23T08:49:56.057Z,80.90
2018-12-23T08:52:24.328Z,78.90
2018-12-23T08:54:52.686Z,81.10
2018-12-23T08:57:20.904Z,80.40
2018-12-23T08:59:49.095Z,83.20
2018-12-23T09:02:17.332Z,85.50
2018-12-23T09:04:45.639Z,87.40
2018-12-23T09:07:13.832Z,87.60
2018-12-23T09:09:42.086Z,87.30
2018-12-23T09:12:10.335Z,86.90
2018-12-23T09:14:38.617Z,88.30
2018-12-23T09:17:06.909Z,88.50
2018-12-23T09:19:35.154Z,87.50
2018-12-23T09:22:03.430Z,88.10
2018-12-23T09:24:31.736Z,87.50
2018-12-23T09:26:59.971Z,88.90
2018-12-23T09:29:28.298Z,88.20
2018-12-23T09:31:56.617Z,84.60
2018-12-23T09:34:24.862Z,85.60
2018-12-23T09:36:53.030Z,82.80
2018-12-23T09:39:21.428Z,82.00
2018-12-23T09:41:49.669Z,82.00
2018-12-23T09:44:17.903Z,82.60
2018-12-23T09:46:46.213Z,77.70
2018-12-23T09:49:14.402Z,77.40
2018-12-23T09:51:42.641Z,77.90
2018-12-23T09:54:10.896Z,76.10
2018-12-23T09:56:39.560Z,74.90
2018-12-23T09:59:07.901Z,75.00
2018-12-23T10:01:36.221Z,73.50
2018-12-23T10:04:04.525Z,74.40
2018-12-23T10:06:32.802Z,73.00
2018-12-23T10:09:00.948Z,71.80
2018-12-23T10:11:29.677Z,73.80
2018-12-23T10:13:57.819Z,70.70
2018-12-23T10:16:26.154Z,67.20
2018-12-23T10:18:54.754Z,68.80
2018-12-23T10:21:23.064Z,66.80
2018-12-23T10:23:51.222Z,69.30
2018-12-23T10:26:19.508Z,67.40
2018-12-23T10:28:47.806Z,69.00
2018-12-23T10:31:16.037Z,68.30
2018-12-23T10:33:44.279Z,66.90
2018-12-23T10:36:12.456Z,67.00
2018-12-23T10:38:40.871Z,66.80
2018-12-23T10:41:09.992Z,66.00
2018-12-23T10:43:38.215Z,66.10
2018-12-23T10:46:06.540Z,66.30
2018-12-23T10:48:34.752Z,66.40
2018-12-23T10:51:02.894Z,68.40
2018-12-23T10:53:31.035Z,66.60
2018-12-23T10:55:59.307Z,68.60
2018-12-23T10:58:27.541Z,66.40
2018-12-23T11:00:55.755Z,66.70
2018-12-23T11:03:23.942Z,65.60
2018-12-23T11:05:52.238Z,64.50
2018-12-23T11:08:26.895Z,64.50
2018-12-23T11:10:50.603Z,65.30
2018-12-23T11:13:18.835Z,67.10
2018-12-23T11:15:47.083Z,66.40
2018-12-23T11:18:15.513Z,66.20
2018-12-23T11:20:43.997Z,64.80
2018-12-23T11:23:12.306Z,63.50
2018-12-23T11:25:40.569Z,63.50
2018-12-23T11:28:08.877Z,62.90
2018-12-23T11:30:37.202Z,64.60
2018-12-23T11:33:05.766Z,63.50
2018-12-23T11:35:33.963Z,64.20
2018-12-23T11:38:02.197Z,63.90
2018-12-23T11:40:30.388Z,62.20
2018-12-23T11:42:58.692Z,64.60
2018-12-23T11:45:26.991Z,64.30
2018-12-23T11:47:55.309Z,64.50
2018-12-23T11:50:23.509Z,62.80
2018-12-23T11:52:51.906Z,63.10
2018-12-23T11:55:20.203Z,61.00
2018-12-23T11:57:48.480Z,62.00
2018-12-23T12:00:16.757Z,62.20
2018-12-23T12:02:44.980Z,62.10
2018-12-23T12:05:13.363Z,61.10
2018-12-23T12:07:41.606Z,62.90
2018-12-23T12:10:09.872Z,62.70
2018-12-23T12:12:38.043Z,61.30
2018-12-23T12:15:06.372Z,63.10
2018-12-23T12:17:34.635Z,59.00
2018-12-23T12:20:02.921Z,60.60
2018-12-23T12:22:31.307Z,62.90
2018-12-23T12:24:59.791Z,59.30
2018-12-23T12:27:28.084Z,60.70
2018-12-23T12:29:56.366Z,59.00
2018-12-23T12:32:24.539Z,61.90
2018-12-23T12:34:52.732Z,60.10
2018-12-23T12:37:20.953Z,60.00
2018-12-23T12:39:49.096Z,59.40
2018-12-23T12:42:17.364Z,58.20
2018-12-23T12:44:45.751Z,59.40
2018-12-23T12:47:14.014Z,60.00
2018-12-23T12:49:43.207Z,58.90
2018-12-23T12:52:11.666Z,61.00
2018-12-23T12:54:39.999Z,61.60
2018-12-23T12:57:08.422Z,59.90
2018-12-23T12:59:36.712Z,60.00
2018-12-23T13:02:05.046Z,58.00
2018-12-23T13:04:33.177Z,60.90
2018-12-23T13:07:01.484Z,59.30
2018-12-23T13:09:29.792Z,61.20
2018-12-23T13:11:58.200Z,59.70
2018-12-23T13:14:26.490Z,60.00
2018-12-23T13:16:54.984Z,59.20
2018-12-23T13:19:23.156Z,59.90
2018-12-23T13:21:51.463Z,57.50
2018-12-23T13:24:19.683Z,59.30
2018-12-23T13:26:47.854Z,60.90
2018-12-23T13:29:16.334Z,58.90
2018-12-23T13:31:44.573Z,58.70
2018-12-23T13:34:12.735Z,60.20
2018-12-23T13:36:40.944Z,59.60
2018-12-23T13:39:11.065Z,60.00
2018-12-23T13:41:51.137Z,58.50
2018-12-23T13:44:37.146Z,59.70
2018-12-23T13:49:17.387Z,60.60
2018-12-23T13:52:11.448Z,61.80
2018-12-23T13:54:49.934Z,59.90
2018-12-23T13:57:46.924Z,62.00
2018-12-23T14:00:26.691Z,60.90
2018-12-23T14:03:05.794Z,61.40
2018-12-23T14:05:48.957Z,61.90
2018-12-23T14:08:38.331Z,60.70
2018-12-23T14:11:18.502Z,60.50
2018-12-23T14:13:46.789Z,58.90
2018-12-23T14:16:15.015Z,62.10
2018-12-23T14:18:43.216Z,60.00
2018-12-23T14:21:11.440Z,62.10
2018-12-23T14:23:39.611Z,61.20
2018-12-23T14:26:07.846Z,61.40
2018-12-23T14:28:36.042Z,62.10
2018-12-23T14:31:04.305Z,63.00
2018-12-23T14:33:32.693Z,62.70
2018-12-23T14:36:00.888Z,63.80
2018-12-23T14:38:29.104Z,64.10
2018-12-23T14:40:57.260Z,68.30
2018-12-23T14:43:25.476Z,71.00
2018-12-23T14:45:53.726Z,74.90
2018-12-23T14:48:21.983Z,78.70
2018-12-23T14:50:50.243Z,82.10
2018-12-23T14:53:18.534Z,83.70
2018-12-23T14:55:46.751Z,86.40
2018-12-23T14:58:15.198Z,88.10
2018-12-23T15:00:43.591Z,89.10
2018-12-23T15:03:11.895Z,90.50
2018-12-23T15:05:40.167Z,91.70
2018-12-23T15:08:08.451Z,92.00
2018-12-23T15:10:36.595Z,93.30
2018-12-23T15:13:04.745Z,95.10
2018-12-23T15:15:32.943Z,96.00
2018-12-23T15:18:01.168Z,95.50
2018-12-23T15:20:29.520Z,94.20
2018-12-23T15:22:57.727Z,93.80
2018-12-23T15:25:25.890Z,94.70
2018-12-23T15:27:54.210Z,97.80
2018-12-23T15:30:22.456Z,99.30
2018-12-23T15:32:50.730Z,99.90
2018-12-23T15:35:25.699Z,99.90
2018-12-23T15:38:47.290Z,99.90
2018-12-23T15:41:28.500Z,99.90
2018-12-23T15:44:09.662Z,99.90
2018-12-23T15:46:50.823Z,99.90
2018-12-23T15:49:31.343Z,99.90
2018-12-23T15:55:08.894Z,99.90
2018-12-23T15:57:39.780Z,99.90
2018-12-23T16:00:28.437Z,99.90
2018-12-23T16:03:16.895Z,99.90
2018-12-23T16:12:07.402Z,99.90
2018-12-23T16:14:55.727Z,99.90
2018-12-23T16:17:44.559Z,99.90
2018-12-23T16:20:33.596Z,99.90
2018-12-23T16:23:21.951Z,99.90
2018-12-23T16:26:10.590Z,99.90
2018-12-23T16:28:59.688Z,99.90
2018-12-23T16:31:48.051Z,99.90
2018-12-23T16:34:36.061Z,99.90
2018-12-23T16:37:24.119Z,99.90
2018-12-23T16:40:12.700Z,99.90
2018-12-23T16:43:01.070Z,99.90
2018-12-23T16:45:49.114Z,99.90
2018-12-23T16:48:37.484Z,99.90
2018-12-23T16:51:25.870Z,99.90
2018-12-23T16:54:14.236Z,99.90
2018-12-23T16:57:02.645Z,99.90
2018-12-23T16:59:50.856Z,99.90
2018-12-23T17:02:39.139Z,99.90
2018-12-23T17:05:27.184Z,99.90
2018-12-23T17:08:15.715Z,99.90
2018-12-23T17:11:03.755Z,99.90
2018-12-23T17:13:51.770Z,99.90
2018-12-23T17:16:40.043Z,99.90
2018-12-23T17:19:28.148Z,99.90
2018-12-23T17:22:16.337Z,99.90
2018-12-23T17:25:04.438Z,99.90
2018-12-23T17:27:52.730Z,99.90
2018-12-23T17:33:48.400Z,99.90
2018-12-23T17:36:36.428Z,99.90
2018-12-23T17:39:24.539Z,99.90
2018-12-23T17:42:12.607Z,99.90
2018-12-23T17:45:00.802Z,99.90
2018-12-23T17:47:48.824Z,99.90
2018-12-23T17:50:36.883Z,99.90
2018-12-23T17:53:18.709Z,99.90
2018-12-23T17:56:00.423Z,99.90
2018-12-23T17:58:30.213Z,99.90
2018-12-23T18:01:18.699Z,99.90
2018-12-23T18:04:07.515Z,99.90
2018-12-23T18:07:03.720Z,99.90
2018-12-23T18:11:58.520Z,99.90
2018-12-23T18:14:46.975Z,99.90
2018-12-23T18:17:35.000Z,99.90
2018-12-23T18:20:23.238Z,99.90
2018-12-23T18:28:58.455Z,99.90
2018-12-23T18:31:46.808Z,99.90
2018-12-23T18:34:35.620Z,99.90
2018-12-23T18:37:23.799Z,99.90
2018-12-23T18:40:12.397Z,99.90
2018-12-23T18:43:00.488Z,99.90
2018-12-23T18:48:55.651Z,99.90
2018-12-23T18:51:43.948Z,99.90
2018-12-23T18:54:24.948Z,99.90
2018-12-23T18:57:05.874Z,99.90
2018-12-23T18:59:46.776Z,99.90
2018-12-23T19:02:27.506Z,99.90
2018-12-23T19:05:08.631Z,99.90
2018-12-23T19:07:49.536Z,99.90
2018-12-23T19:10:30.407Z,99.90
2018-12-23T19:13:11.235Z,99.90
2018-12-23T19:15:51.787Z,99.90
2018-12-23T19:18:32.555Z,99.90
2018-12-23T19:21:13.319Z,99.90
2018-12-23T19:23:53.860Z,99.90
2018-12-23T19:26:35.252Z,99.90
2018-12-23T19:29:16.367Z,99.90
2018-12-23T19:31:57.192Z,99.90
2018-12-23T19:34:38.015Z,99.90
2018-12-23T19:37:18.587Z,99.90
2018-12-23T19:39:59.559Z,99.90
2018-12-23T19:42:40.600Z,99.90
2018-12-23T19:45:21.970Z,99.90
2018-12-23T19:48:03.120Z,99.90
2018-12-23T19:50:43.831Z,99.90
2018-12-23T19:53:24.604Z,99.90
2018-12-23T19:56:05.810Z,99.90
2018-12-23T19:58:47.076Z,99.90
2018-12-23T20:01:27.695Z,99.90
2018-12-23T20:04:08.975Z,99.90
2018-12-23T20:06:50.152Z,99.90
2018-12-23T20:09:31.568Z,99.90
2018-12-23T20:12:12.804Z,99.90
2018-12-23T20:14:53.356Z,99.90
2018-12-23T20:17:34.043Z,99.90
2018-12-23T20:20:14.815Z,99.90
2018-12-23T20:22:55.544Z,99.90
2018-12-23T20:25:37.013Z,99.90
2018-12-23T20:28:18.264Z,99.90
2018-12-23T20:30:59.283Z,99.90
2018-12-23T20:33:40.491Z,99.90
2018-12-23T20:36:20.919Z,99.90
2018-12-23T20:39:01.717Z,99.90
2018-12-23T20:41:42.283Z,99.90
2018-12-23T20:44:23.015Z,99.90
2018-12-23T20:47:03.820Z,99.90
2018-12-23T20:52:27.310Z,99.90
2018-12-23T20:55:07.972Z,99.90
2018-12-23T20:57:48.848Z,99.90
2018-12-23T21:00:30.088Z,99.90
2018-12-23T21:03:11.435Z,99.90
2018-12-23T21:05:52.804Z,99.90
2018-12-23T21:08:33.229Z,99.90
2018-12-23T21:11:28.967Z,99.90
2018-12-23T21:14:20.460Z,99.90
2018-12-23T21:17:30.560Z,99.90
2018-12-23T21:20:35.581Z,99.90
2018-12-23T21:23:32.794Z,99.90
2018-12-23T21:26:32.232Z,99.90
2018-12-23T21:29:39.870Z,99.90
2018-12-23T21:32:45.799Z,99.90
2018-12-23T21:35:53.054Z,99.90
2018-12-23T21:39:00.575Z,99.90
2018-12-23T21:42:08.023Z,99.90
2018-12-23T21:45:15.515Z,99.90
2018-12-23T21:48:22.982Z,99.90
2018-12-23T21:51:30.507Z,99.90
2018-12-23T21:54:11.410Z,99.90
2018-12-23T21:56:52.083Z,99.90
2018-12-23T21:59:33.158Z,99.90
2018-12-23T22:02:13.912Z,99.90
2018-12-23T22:04:54.867Z,99.90
2018-12-23T22:07:35.528Z,99.90
2018-12-23T22:10:16.258Z,99.90
2018-12-23T22:12:57.074Z,99.90
2018-12-23T22:15:37.518Z,99.90
2018-12-23T22:18:18.325Z,99.90
2018-12-23T22:20:58.837Z,99.90
2018-12-23T22:23:40.172Z,99.90
2018-12-23T22:26:21.108Z,99.90
2018-12-23T22:29:02.130Z,99.90
2018-12-23T22:31:42.861Z,99.90
2018-12-23T22:34:23.382Z,99.90
2018-12-23T22:37:04.228Z,99.90
2018-12-23T22:39:45.254Z,99.90
2018-12-23T22:42:25.812Z,99.90
2018-12-23T22:45:07.452Z,99.90
2018-12-23T22:47:48.064Z,99.90
2018-12-23T22:50:28.791Z,99.90
2018-12-23T22:53:09.380Z,99.90
2018-12-23T22:55:50.148Z,99.90
2018-12-23T22:58:30.920Z,99.90
2018-12-23T23:01:11.766Z,99.90
2018-12-23T23:03:53.345Z,99.90
2018-12-23T23:06:34.823Z,99.90
2018-12-23T23:09:15.344Z,99.90
2018-12-23T23:11:56.194Z,99.90
2018-12-23T23:14:36.657Z,99.90
2018-12-23T23:17:17.311Z,99.90
2018-12-23T23:19:57.971Z,99.90
2018-12-23T23:22:39.222Z,99.90
2018-12-23T23:25:07.960Z,99.90
2018-12-23T23:27:55.968Z,99.90
2018-12-23T23:36:45.280Z,99.90
2018-12-23T23:39:33.318Z,99.90
2018-12-23T23:42:21.431Z,99.90
2018-12-23T23:45:09.745Z,99.90
2018-12-23T23:47:57.874Z,99.90
2018-12-23T23:53:46.514Z,99.90
2018-12-23T23:56:27.525Z,99.90
2018-12-23T23:59:07.953Z,99.90
